createdAt,value
2023-05-04T00:00:21.237Z,9.64
2023-05-04T00:03:06.770Z,9.63
2023-05-04T00:05:52.167Z,9.61
2023-05-04T00:08:37.495Z,9.61
2023-05-04T00:11:22.864Z,9.61
2023-05-04T00:14:08.360Z,9.58
2023-05-04T00:16:53.388Z,9.55
2023-05-04T00:19:41.082Z,9.54
2023-05-04T00:22:26.148Z,9.54
2023-05-04T00:25:11.775Z,9.53
2023-05-04T00:27:57.318Z,9.53
2023-05-04T00:30:42.624Z,9.54
2023-05-04T00:33:27.762Z,9.52
2023-05-04T00:36:14.059Z,9.50
2023-05-04T00:38:59.018Z,9.49
2023-05-04T00:41:45.888Z,9.50
2023-05-04T00:44:31.307Z,9.47
2023-05-04T00:47:17.038Z,9.46
2023-05-04T00:50:04.070Z,9.48
2023-05-04T00:52:50.793Z,9.45
2023-05-04T00:55:39.374Z,9.43
2023-05-04T00:58:25.453Z,9.41
2023-05-04T01:01:10.995Z,9.39
2023-05-04T01:03:57.414Z,9.41
2023-05-04T01:06:52.288Z,9.39
2023-05-04T01:09:45.750Z,9.35
2023-05-04T01:12:52.765Z,9.36
2023-05-04T01:15:39.838Z,9.36
2023-05-04T01:18:25.104Z,9.39
2023-05-04T01:21:10.254Z,9.38
2023-05-04T01:23:56.352Z,9.36
2023-05-04T01:26:45.805Z,9.37
2023-05-04T01:29:42.700Z,9.36
2023-05-04T01:32:29.758Z,9.34
2023-05-04T01:35:16.354Z,9.32
2023-05-04T01:38:02.343Z,9.25
2023-05-04T01:40:47.258Z,9.21
2023-05-04T01:43:32.625Z,9.22
2023-05-04T01:46:18.052Z,9.23
2023-05-04T01:49:03.155Z,9.20
2023-05-04T01:51:49.532Z,9.18
2023-05-04T01:54:34.747Z,9.19
2023-05-04T01:57:20.101Z,9.20
2023-05-04T02:00:06.179Z,9.21
2023-05-04T02:02:51.576Z,9.22
2023-05-04T02:05:36.812Z,9.21
2023-05-04T02:08:22.208Z,9.20
2023-05-04T02:11:07.374Z,9.19
2023-05-04T02:13:52.777Z,9.20
2023-05-04T02:16:38.256Z,9.21
2023-05-04T02:19:23.389Z,9.19
2023-05-04T02:22:08.524Z,9.19
2023-05-04T02:24:53.960Z,9.17
2023-05-04T02:27:39.188Z,9.18
2023-05-04T02:30:24.438Z,9.17
2023-05-04T02:33:09.863Z,9.18
2023-05-04T02:35:55.092Z,9.16
2023-05-04T02:38:40.460Z,9.16
2023-05-04T02:41:26.807Z,9.16
2023-05-04T02:44:12.003Z,9.14
2023-05-04T02:46:57.296Z,9.13
2023-05-04T02:49:42.544Z,9.12
2023-05-04T02:52:27.783Z,9.06
2023-05-04T02:55:13.022Z,9.06
2023-05-04T02:57:58.530Z,9.07
2023-05-04T03:00:43.914Z,9.02
2023-05-04T03:03:29.306Z,8.95
2023-05-04T03:06:14.843Z,8.90
2023-05-04T03:09:00.010Z,8.93
2023-05-04T03:11:45.360Z,8.97
2023-05-04T03:14:31.470Z,8.99
2023-05-04T03:17:16.778Z,8.99
2023-05-04T03:20:02.493Z,9.04
2023-05-04T03:22:47.778Z,9.06
2023-05-04T03:25:33.186Z,9.05
2023-05-04T03:28:19.075Z,9.02
2023-05-04T03:31:04.297Z,9.04
2023-05-04T03:33:49.548Z,9.04
2023-05-04T03:36:36.354Z,9.05
2023-05-04T03:39:21.330Z,9.05
2023-05-04T03:42:06.600Z,9.06
2023-05-04T03:44:51.900Z,9.02
2023-05-04T03:47:37.306Z,9.05
2023-05-04T03:50:23.002Z,9.08
2023-05-04T03:53:08.433Z,9.10
2023-05-04T03:55:53.645Z,9.10
2023-05-04T03:58:38.893Z,9.12
2023-05-04T04:01:24.239Z,9.13
2023-05-04T04:04:09.655Z,9.13
2023-05-04T04:06:54.970Z,9.13
2023-05-04T04:09:40.204Z,9.14
2023-05-04T04:12:25.627Z,9.13
2023-05-04T04:15:11.231Z,9.12
2023-05-04T04:17:56.559Z,9.12
2023-05-04T04:20:41.940Z,9.14
2023-05-04T04:23:27.168Z,9.12
2023-05-04T04:26:12.376Z,9.14
2023-05-04T04:28:57.800Z,9.14
2023-05-04T04:31:43.085Z,9.15
2023-05-04T04:34:28.457Z,9.16
2023-05-04T04:37:13.685Z,9.15
2023-05-04T04:39:58.907Z,9.16
2023-05-04T04:42:44.160Z,9.18
2023-05-04T04:45:29.963Z,9.17
2023-05-04T04:48:16.889Z,9.16
2023-05-04T04:51:02.175Z,9.19
2023-05-04T04:53:47.527Z,9.21
2023-05-04T04:56:32.814Z,9.23
2023-05-04T04:59:18.115Z,9.26
2023-05-04T05:02:04.002Z,9.28
2023-05-04T05:04:49.379Z,9.31
2023-05-04T05:07:34.560Z,9.32
2023-05-04T05:10:21.238Z,9.31
2023-05-04T05:13:06.461Z,9.30
2023-05-04T05:15:51.785Z,9.22
2023-05-04T05:18:37.078Z,9.23
2023-05-04T05:21:22.555Z,9.29
2023-05-04T05:24:07.768Z,9.35
2023-05-04T05:26:53.259Z,9.33
2023-05-04T05:29:38.630Z,9.27
2023-05-04T05:32:24.047Z,9.33
2023-05-04T05:35:09.632Z,9.40
2023-05-04T05:37:54.779Z,9.45
2023-05-04T05:40:40.040Z,9.41
2023-05-04T05:43:25.421Z,9.36
2023-05-04T05:46:12.073Z,9.40
2023-05-04T05:48:57.080Z,9.36
2023-05-04T05:51:42.171Z,9.41
2023-05-04T05:54:31.400Z,9.41
2023-05-04T05:57:16.727Z,9.43
2023-05-04T06:00:02.179Z,9.40
2023-05-04T06:02:48.460Z,9.46
2023-05-04T06:05:36.434Z,9.48
2023-05-04T06:08:21.847Z,9.43
2023-05-04T06:11:07.423Z,9.48
2023-05-04T06:13:52.675Z,9.49
2023-05-04T06:16:38.713Z,9.55
2023-05-04T06:19:24.094Z,9.52
2023-05-04T06:22:09.316Z,9.49
2023-05-04T06:24:59.581Z,9.49
2023-05-04T06:27:47.564Z,9.50
2023-05-04T06:30:33.065Z,9.46
2023-05-04T06:33:18.246Z,9.39
2023-05-04T06:36:03.930Z,9.34
2023-05-04T06:38:49.091Z,9.32
2023-05-04T06:41:34.398Z,9.34
2023-05-04T06:44:19.600Z,9.34
2023-05-04T06:47:05.077Z,9.42
2023-05-04T06:49:50.281Z,9.47
2023-05-04T06:52:38.381Z,9.51
2023-05-04T06:55:24.021Z,9.53
2023-05-04T06:58:09.344Z,9.54
2023-05-04T07:00:55.027Z,9.59
2023-05-04T07:03:40.724Z,9.66
2023-05-04T07:06:27.306Z,9.67
2023-05-04T07:09:12.652Z,9.66
2023-05-04T07:11:57.895Z,9.70
2023-05-04T07:14:43.292Z,9.73
2023-05-04T07:17:32.329Z,9.74
2023-05-04T07:20:17.602Z,9.73
2023-05-04T07:23:02.959Z,9.68
2023-05-04T07:25:48.358Z,9.65
2023-05-04T07:28:34.031Z,9.53
2023-05-04T07:31:19.253Z,9.42
2023-05-04T07:34:04.702Z,9.38
2023-05-04T07:36:49.853Z,9.39
2023-05-04T07:39:35.983Z,9.41
2023-05-04T07:42:23.534Z,9.44
2023-05-04T07:45:09.833Z,9.51
2023-05-04T07:47:54.989Z,9.54
2023-05-04T07:50:40.488Z,9.55
2023-05-04T07:53:26.487Z,9.59
2023-05-04T07:56:13.164Z,9.63
2023-05-04T07:58:58.273Z,9.68
2023-05-04T08:01:44.224Z,9.78
2023-05-04T08:04:29.364Z,9.87
2023-05-04T08:07:17.048Z,9.91
2023-05-04T08:10:02.181Z,9.94
2023-05-04T08:12:47.704Z,10.01
2023-05-04T08:15:33.124Z,10.01
2023-05-04T08:18:18.519Z,10.04
2023-05-04T08:21:03.856Z,10.10
2023-05-04T08:23:49.819Z,10.21
2023-05-04T08:26:37.702Z,10.24
2023-05-04T08:29:23.229Z,10.31
2023-05-04T08:32:08.636Z,10.37
2023-05-04T08:34:53.788Z,10.45
2023-05-04T08:37:39.039Z,10.47
2023-05-04T08:40:24.882Z,10.42
2023-05-04T08:43:10.282Z,10.37
2023-05-04T08:45:55.909Z,10.33
2023-05-04T08:48:43.012Z,10.33
2023-05-04T08:51:29.787Z,10.42
2023-05-04T08:54:16.285Z,10.55
2023-05-04T08:57:04.929Z,10.59
2023-05-04T08:59:52.819Z,10.63
2023-05-04T09:02:38.426Z,10.64
2023-05-04T09:05:24.141Z,10.66
2023-05-04T09:08:09.690Z,10.76
2023-05-04T09:10:54.972Z,10.84
2023-05-04T09:13:40.302Z,10.83
2023-05-04T09:16:34.709Z,10.83
2023-05-04T09:19:21.221Z,10.80
2023-05-04T09:22:19.444Z,10.77
2023-05-04T09:25:10.298Z,10.76
2023-05-04T09:27:56.211Z,10.72
2023-05-04T09:30:41.467Z,10.78
2023-05-04T09:33:29.693Z,10.90
2023-05-04T09:36:21.205Z,10.96
2023-05-04T09:39:13.653Z,11.13
2023-05-04T09:41:58.815Z,11.19
2023-05-04T09:44:43.814Z,11.26
2023-05-04T09:47:37.725Z,11.22
2023-05-04T09:50:25.327Z,11.10
2023-05-04T09:53:10.869Z,11.02
2023-05-04T09:56:17.971Z,11.01
2023-05-04T09:59:05.667Z,10.98
2023-05-04T10:01:51.005Z,10.97
2023-05-04T10:04:37.113Z,11.04
2023-05-04T10:07:22.677Z,11.07
2023-05-04T10:10:08.571Z,11.18
2023-05-04T10:12:53.771Z,11.27
2023-05-04T10:15:54.895Z,11.32
2023-05-04T10:19:14.272Z,11.25
2023-05-04T10:21:59.051Z,11.23
2023-05-04T10:25:02.565Z,11.23
2023-05-04T10:28:01.724Z,11.19
2023-05-04T10:30:47.247Z,11.18
2023-05-04T10:33:42.682Z,11.19
2023-05-04T10:36:39.000Z,11.24
2023-05-04T10:39:25.942Z,11.32
2023-05-04T10:42:11.458Z,11.42
2023-05-04T10:44:57.058Z,11.51
2023-05-04T10:47:42.205Z,11.57
2023-05-04T10:50:27.383Z,11.56
2023-05-04T10:53:14.699Z,11.61
2023-05-04T10:55:59.932Z,11.65
2023-05-04T10:58:45.121Z,11.65
2023-05-04T11:01:30.583Z,11.60
2023-05-04T11:04:22.597Z,11.66
2023-05-04T11:07:08.686Z,11.68
2023-05-04T11:09:54.828Z,11.72
2023-05-04T11:12:39.916Z,11.73
2023-05-04T11:15:25.012Z,11.80
2023-05-04T11:18:10.661Z,11.85
2023-05-04T11:20:58.381Z,11.85
2023-05-04T11:23:43.742Z,11.88
2023-05-04T11:26:29.159Z,11.89
2023-05-04T11:29:14.806Z,11.94
2023-05-04T11:32:00.184Z,11.97
2023-05-04T11:34:48.370Z,11.96
2023-05-04T11:37:44.455Z,11.96
2023-05-04T11:40:29.771Z,12.02
2023-05-04T11:43:16.110Z,12.01
2023-05-04T11:46:02.793Z,12.04
2023-05-04T11:48:48.226Z,12.05
2023-05-04T11:51:33.331Z,12.13
2023-05-04T11:54:24.984Z,12.19
2023-05-04T11:57:21.745Z,12.27
2023-05-04T12:00:09.023Z,12.28
2023-05-04T12:02:56.402Z,12.24
2023-05-04T12:05:52.721Z,12.31
2023-05-04T12:08:42.358Z,12.36
2023-05-04T12:11:28.584Z,12.42
2023-05-04T12:14:14.096Z,12.48
2023-05-04T12:17:02.869Z,12.57
2023-05-04T12:19:52.652Z,12.64
2023-05-04T12:22:37.722Z,12.70
2023-05-04T12:25:24.162Z,12.71
2023-05-04T12:28:09.569Z,12.67
2023-05-04T12:30:55.050Z,12.72
2023-05-04T12:33:40.454Z,12.64
2023-05-04T12:36:25.682Z,12.60
2023-05-04T12:39:11.452Z,12.58
2023-05-04T12:41:57.185Z,12.57
2023-05-04T12:44:42.454Z,12.56
2023-05-04T12:47:27.876Z,12.52
2023-05-04T12:50:13.075Z,12.56
2023-05-04T12:52:58.428Z,12.61
2023-05-04T12:55:43.922Z,12.68
2023-05-04T12:58:29.041Z,12.77
2023-05-04T13:01:14.492Z,12.95
2023-05-04T13:03:59.731Z,13.05
2023-05-04T13:06:47.001Z,13.16
2023-05-04T13:09:33.593Z,13.32
2023-05-04T13:12:19.119Z,13.48
2023-05-04T13:15:04.727Z,13.41
2023-05-04T13:17:50.092Z,13.30
2023-05-04T13:20:35.700Z,13.32
2023-05-04T13:23:21.614Z,13.25
2023-05-04T13:26:06.847Z,13.14
2023-05-04T13:28:52.876Z,13.05
2023-05-04T13:31:38.191Z,13.01
2023-05-04T13:34:29.476Z,12.97
2023-05-04T13:37:18.391Z,13.01
2023-05-04T13:40:04.371Z,12.99
2023-05-04T13:42:49.526Z,13.06
2023-05-04T13:45:35.189Z,13.08
2023-05-04T13:48:20.404Z,13.14
2023-05-04T13:51:05.717Z,13.20
2023-05-04T13:53:51.117Z,13.22
2023-05-04T13:56:36.591Z,13.06
2023-05-04T13:59:22.036Z,13.05
2023-05-04T14:02:08.001Z,13.03
2023-05-04T14:04:53.360Z,13.06
2023-05-04T14:07:38.959Z,13.18
2023-05-04T14:10:24.359Z,13.28
2023-05-04T14:13:09.823Z,13.51
2023-05-04T14:15:55.179Z,13.77
2023-05-04T14:18:40.310Z,14.01
2023-05-04T14:21:25.807Z,13.94
2023-05-04T14:24:11.135Z,13.87
2023-05-04T14:26:56.432Z,13.80
2023-05-04T14:29:41.748Z,13.78
2023-05-04T14:32:27.107Z,13.66
2023-05-04T14:35:12.590Z,13.58
2023-05-04T14:37:57.649Z,13.65
2023-05-04T14:40:43.044Z,13.65
2023-05-04T14:43:28.714Z,13.54
2023-05-04T14:46:14.158Z,13.55
2023-05-04T14:49:00.159Z,13.55
2023-05-04T14:51:45.350Z,13.58
2023-05-04T14:54:30.878Z,13.54
2023-05-04T14:57:16.240Z,13.52
2023-05-04T15:00:07.541Z,13.57
2023-05-04T15:02:53.120Z,13.61
2023-05-04T15:05:38.497Z,13.78
2023-05-04T15:08:23.728Z,13.91
2023-05-04T15:11:09.004Z,13.97
2023-05-04T15:13:57.968Z,13.99
2023-05-04T15:16:43.636Z,14.09
2023-05-04T15:19:28.952Z,14.07
2023-05-04T15:22:14.251Z,14.10
2023-05-04T15:24:59.594Z,13.96
2023-05-04T15:27:45.094Z,13.93
2023-05-04T15:30:30.549Z,13.93
2023-05-04T15:33:17.005Z,13.93
2023-05-04T15:36:07.842Z,13.89
2023-05-04T15:38:53.413Z,13.87
2023-05-04T15:41:38.910Z,13.79
2023-05-04T15:44:24.932Z,13.84
2023-05-04T15:47:12.436Z,13.88
2023-05-04T15:49:57.579Z,13.97
2023-05-04T15:52:42.899Z,14.07
2023-05-04T15:55:28.537Z,14.19
2023-05-04T15:58:13.766Z,14.21
2023-05-04T16:01:03.336Z,14.24
2023-05-04T16:03:48.784Z,14.30
2023-05-04T16:06:34.010Z,14.30
2023-05-04T16:09:20.775Z,14.28
2023-05-04T16:12:06.246Z,14.30
2023-05-04T16:14:52.091Z,14.31
2023-05-04T16:17:37.244Z,14.39
2023-05-04T16:20:22.467Z,14.41
2023-05-04T16:23:07.723Z,14.40
2023-05-04T16:25:53.095Z,14.44
2023-05-04T16:28:40.632Z,14.46
2023-05-04T16:31:26.110Z,14.46
2023-05-04T16:34:11.346Z,14.53
2023-05-04T16:36:56.604Z,14.58
2023-05-04T16:39:41.910Z,14.62
2023-05-04T16:42:27.250Z,14.51
2023-05-04T16:45:14.018Z,14.40
2023-05-04T16:47:59.622Z,14.36
2023-05-04T16:50:45.113Z,14.42
2023-05-04T16:53:30.602Z,14.46
2023-05-04T16:56:23.032Z,14.44
2023-05-04T16:59:08.360Z,14.35
2023-05-04T17:01:53.850Z,14.27
2023-05-04T17:04:39.213Z,14.19
2023-05-04T17:07:24.554Z,14.21
2023-05-04T17:10:10.637Z,14.26
2023-05-04T17:12:55.768Z,14.34
2023-05-04T17:15:41.097Z,14.44
2023-05-04T17:18:26.266Z,14.48
2023-05-04T17:21:11.909Z,14.50
2023-05-04T17:23:56.979Z,14.48
2023-05-04T17:26:42.263Z,14.38
2023-05-04T17:29:27.744Z,14.25
2023-05-04T17:32:13.019Z,14.00
2023-05-04T17:35:03.248Z,13.88
2023-05-04T17:37:58.014Z,13.81
2023-05-04T17:40:44.366Z,13.70
2023-05-04T17:43:29.685Z,13.59
2023-05-04T17:46:15.132Z,13.51
2023-05-04T17:49:00.630Z,13.36
2023-05-04T17:51:46.637Z,13.20
2023-05-04T17:54:31.738Z,13.05
2023-05-04T17:57:16.855Z,12.83
2023-05-04T18:00:02.189Z,12.68
2023-05-04T18:02:47.812Z,12.53
2023-05-04T18:05:33.093Z,12.41
2023-05-04T18:08:18.622Z,12.33
2023-05-04T18:11:04.182Z,12.22
2023-05-04T18:13:51.070Z,12.09
2023-05-04T18:16:37.727Z,11.94
2023-05-04T18:19:27.892Z,11.78
2023-05-04T18:22:13.580Z,11.66
2023-05-04T18:24:58.922Z,11.60
2023-05-04T18:27:44.689Z,11.44
2023-05-04T18:30:29.984Z,11.37
2023-05-04T18:33:15.735Z,11.29
2023-05-04T18:36:01.184Z,11.19
2023-05-04T18:38:50.277Z,11.11
2023-05-04T18:41:37.888Z,10.99
2023-05-04T18:44:23.586Z,10.93
2023-05-04T18:47:09.134Z,10.86
2023-05-04T18:49:56.641Z,10.77
2023-05-04T18:52:41.907Z,10.66
2023-05-04T18:55:28.703Z,10.56
2023-05-04T18:58:13.897Z,10.44
2023-05-04T19:01:01.796Z,10.34
2023-05-04T19:03:47.229Z,10.23
2023-05-04T19:06:34.161Z,10.17
2023-05-04T19:09:19.391Z,10.07
2023-05-04T19:12:05.212Z,10.04
2023-05-04T19:14:51.275Z,9.95
2023-05-04T19:17:37.169Z,9.86
2023-05-04T19:20:22.559Z,9.72
2023-05-04T19:23:10.133Z,9.62
2023-05-04T19:25:55.275Z,9.50
2023-05-04T19:28:40.686Z,9.38
2023-05-04T19:31:26.354Z,9.27
2023-05-04T19:34:12.547Z,9.18
2023-05-04T19:36:59.254Z,9.10
2023-05-04T19:39:44.312Z,9.04
2023-05-04T19:42:29.673Z,8.96
2023-05-04T19:45:15.417Z,8.83
2023-05-04T19:48:00.907Z,8.75
2023-05-04T19:50:46.834Z,8.66
2023-05-04T19:53:32.157Z,8.60
2023-05-04T19:56:17.400Z,8.57
2023-05-04T19:59:05.864Z,8.49
2023-05-04T20:01:51.502Z,8.41
2023-05-04T20:04:36.613Z,8.37
2023-05-04T20:07:23.385Z,8.38
2023-05-04T20:10:09.187Z,8.38
2023-05-04T20:12:54.465Z,8.37
2023-05-04T20:15:39.865Z,8.30
2023-05-04T20:18:26.183Z,8.20
2023-05-04T20:21:11.823Z,8.12
2023-05-04T20:23:56.949Z,8.02
2023-05-04T20:26:42.185Z,7.93
2023-05-04T20:29:27.889Z,7.84
2023-05-04T20:32:13.237Z,7.77
2023-05-04T20:35:00.008Z,7.72
2023-05-04T20:37:45.363Z,7.64
2023-05-04T20:40:30.794Z,7.58
2023-05-04T20:43:15.986Z,7.53
2023-05-04T20:46:02.496Z,7.50
2023-05-04T20:48:47.796Z,7.42
2023-05-04T20:51:33.184Z,7.35
2023-05-04T20:54:18.495Z,7.26
2023-05-04T20:57:03.915Z,7.22
2023-05-04T20:59:49.309Z,7.20
2023-05-04T21:02:34.919Z,7.15
2023-05-04T21:05:20.706Z,7.15
2023-05-04T21:08:05.999Z,7.14
2023-05-04T21:10:52.236Z,7.09
2023-05-04T21:13:37.266Z,7.02
2023-05-04T21:16:22.773Z,6.99
2023-05-04T21:19:08.417Z,6.94
2023-05-04T21:21:54.548Z,6.88
2023-05-04T21:24:39.981Z,6.81
2023-05-04T21:27:25.162Z,6.77
2023-05-04T21:30:11.205Z,6.77
2023-05-04T21:32:56.609Z,6.79
2023-05-04T21:35:42.013Z,6.79
2023-05-04T21:38:27.454Z,6.73
2023-05-04T21:41:13.940Z,6.64
2023-05-04T21:43:58.950Z,6.58
2023-05-04T21:46:44.719Z,6.52
2023-05-04T21:49:30.165Z,6.48
2023-05-04T21:52:15.423Z,6.43
2023-05-04T21:55:00.709Z,6.37
2023-05-04T21:57:45.994Z,6.34
2023-05-04T22:00:31.472Z,6.27
2023-05-04T22:03:16.724Z,6.22
2023-05-04T22:06:02.238Z,6.18
2023-05-04T22:08:47.226Z,6.16
2023-05-04T22:11:32.601Z,6.14
2023-05-04T22:14:18.525Z,6.09
2023-05-04T22:17:03.977Z,6.02
2023-05-04T22:19:49.147Z,5.99
2023-05-04T22:22:34.854Z,5.98
2023-05-04T22:25:20.118Z,5.95
2023-05-04T22:28:05.765Z,5.89
2023-05-04T22:30:50.853Z,5.86
2023-05-04T22:33:36.215Z,5.88
2023-05-04T22:36:22.080Z,5.85
2023-05-04T22:39:07.269Z,5.80
2023-05-04T22:41:52.431Z,5.81
2023-05-04T22:44:37.855Z,5.73
2023-05-04T22:47:23.504Z,5.66
2023-05-04T22:50:09.729Z,5.62
2023-05-04T22:52:55.211Z,5.56
2023-05-04T22:55:40.843Z,5.49
2023-05-04T22:58:26.109Z,5.45
2023-05-04T23:01:11.944Z,5.40
2023-05-04T23:03:57.612Z,5.36
2023-05-04T23:06:43.784Z,5.36
2023-05-04T23:09:29.570Z,5.31
2023-05-04T23:12:15.496Z,5.28
2023-05-04T23:15:00.618Z,5.25
2023-05-04T23:17:45.733Z,5.23
2023-05-04T23:20:30.981Z,5.22
2023-05-04T23:23:16.634Z,5.20
2023-05-04T23:26:01.641Z,5.18
2023-05-04T23:28:46.944Z,5.15
2023-05-04T23:31:32.285Z,5.14
2023-05-04T23:34:17.829Z,5.11
2023-05-04T23:37:03.004Z,5.05
2023-05-04T23:39:48.644Z,5.02
2023-05-04T23:42:33.605Z,5.05
2023-05-04T23:45:19.061Z,5.02
2023-05-04T23:48:04.692Z,4.97
2023-05-04T23:50:53.698Z,4.92
2023-05-04T23:53:39.176Z,4.89
2023-05-04T23:56:24.336Z,4.84
2023-05-04T23:59:10.584Z,4.81
